Terminal Aerodrome Forecast
Issued by NWS

Home | Current Version | Previous Version | Text Only | Print | Product List | Glossary On
Versions: 1 2 3 4 5 6 7 8 9 10 11 12 13 14 15 16
000
FTUS45 KREV 282322 CCA
TAFMMH
TAF COR
KMMH 282322Z 2900/2924 30012KT P6SM VCSH SCT040 SCT060 BKN200
     FM290600 VRB05KT P6SM SCT060 BKN250
     FM291500 13006KT P6SM FEW060 BKN250
     FM292100 21010KT P6SM VCSH SCT060 BKN200=

USA.gov is the U.S. government's official web portal to all federal, state and local government web resources and services.